sensor_id;sensor_type;location;lat;lon;timestamp;temperature;humidity
75380;HTU21D;65641;44.714;37.756;2023-03-24T00:00:41;13.61;74.16
75380;HTU21D;65641;44.714;37.756;2023-03-24T00:01:45;13.62;74.16
75380;HTU21D;65641;44.714;37.756;2023-03-24T00:02:48;13.61;74.16
75380;HTU21D;65641;44.714;37.756;2023-03-24T00:03:51;13.61;74.15
75380;HTU21D;65641;44.714;37.756;2023-03-24T00:04:54;13.60;74.14
75380;HTU21D;65641;44.714;37.756;2023-03-24T00:06:01;13.61;74.14
75380;HTU21D;65641;44.714;37.756;2023-03-24T00:07:09;13.61;74.15
75380;HTU21D;65641;44.714;37.756;2023-03-24T00:08:16;13.59;74.16
75380;HTU21D;65641;44.714;37.756;2023-03-24T00:09:25;13.60;74.16
75380;HTU21D;65641;44.714;37.756;2023-03-24T00:10:28;13.60;74.14
75380;HTU21D;65641;44.714;37.756;2023-03-24T00:11:36;13.61;74.12
75380;HTU21D;65641;44.714;37.756;2023-03-24T00:12:40;13.60;74.12
75380;HTU21D;65641;44.714;37.756;2023-03-24T00:13:44;13.60;74.12
75380;HTU21D;65641;44.714;37.756;2023-03-24T00:14:48;13.61;74.12
75380;HTU21D;65641;44.714;37.756;2023-03-24T00:15:51;13.60;74.12
75380;HTU21D;65641;44.714;37.756;2023-03-24T00:16:54;13.60;74.12
75380;HTU21D;65641;44.714;37.756;2023-03-24T00:18:01;13.59;74.13
75380;HTU21D;65641;44.714;37.756;2023-03-24T00:19:04;13.58;74.13
75380;HTU21D;65641;44.714;37.756;2023-03-24T00:20:10;13.59;74.15
75380;HTU21D;65641;44.714;37.756;2023-03-24T00:21:16;13.59;74.15
75380;HTU21D;65641;44.714;37.756;2023-03-24T00:22:19;13.60;74.13
75380;HTU21D;65641;44.714;37.756;2023-03-24T00:23:24;13.59;74.14
75380;HTU21D;65641;44.714;37.756;2023-03-24T00:24:27;13.60;74.12
75380;HTU21D;65641;44.714;37.756;2023-03-24T00:25:31;13.59;74.13
75380;HTU21D;65641;44.714;37.756;2023-03-24T00:26:42;13.60;74.15
75380;HTU21D;65641;44.714;37.756;2023-03-24T00:27:45;13.58;74.12
75380;HTU21D;65641;44.714;37.756;2023-03-24T00:28:50;13.60;74.13
75380;HTU21D;65641;44.714;37.756;2023-03-24T00:29:53;13.60;74.12
75380;HTU21D;65641;44.714;37.756;2023-03-24T00:30:56;13.60;74.12
75380;HTU21D;65641;44.714;37.756;2023-03-24T00:31:59;13.59;74.12
75380;HTU21D;65641;44.714;37.756;2023-03-24T00:33:03;13.59;74.13
75380;HTU21D;65641;44.714;37.756;2023-03-24T00:34:07;13.59;74.15
75380;HTU21D;65641;44.714;37.756;2023-03-24T00:35:12;13.59;74.14
75380;HTU21D;65641;44.714;37.756;2023-03-24T00:36:17;13.60;74.15
75380;HTU21D;65641;44.714;37.756;2023-03-24T00:37:21;13.60;74.13
75380;HTU21D;65641;44.714;37.756;2023-03-24T00:38:26;13.58;74.12
75380;HTU21D;65641;44.714;37.756;2023-03-24T00:39:29;13.59;74.11
75380;HTU21D;65641;44.714;37.756;2023-03-24T00:40:32;13.58;74.11
75380;HTU21D;65641;44.714;37.756;2023-03-24T00:41:34;13.58;74.10
75380;HTU21D;65641;44.714;37.756;2023-03-24T00:42:39;13.58;74.09
75380;HTU21D;65641;44.714;37.756;2023-03-24T00:43:42;13.58;74.09
75380;HTU21D;65641;44.714;37.756;2023-03-24T00:44:45;13.58;74.09
75380;HTU21D;65641;44.714;37.756;2023-03-24T00:45:49;13.58;74.09
75380;HTU21D;65641;44.714;37.756;2023-03-24T00:46:53;13.58;74.09
75380;HTU21D;65641;44.714;37.756;2023-03-24T00:47:59;13.56;74.09
75380;HTU21D;65641;44.714;37.756;2023-03-24T00:49:04;13.55;74.10
75380;HTU21D;65641;44.714;37.756;2023-03-24T00:50:13;13.54;74.10
75380;HTU21D;65641;44.714;37.756;2023-03-24T00:51:17;13.55;74.10
75380;HTU21D;65641;44.714;37.756;2023-03-24T00:52:21;13.55;74.09
75380;HTU21D;65641;44.714;37.756;2023-03-24T00:53:24;13.55;74.11
75380;HTU21D;65641;44.714;37.756;2023-03-24T00:54:30;13.54;74.10
75380;HTU21D;65641;44.714;37.756;2023-03-24T00:55:33;13.54;74.11
75380;HTU21D;65641;44.714;37.756;2023-03-24T00:56:40;13.54;74.11
75380;HTU21D;65641;44.714;37.756;2023-03-24T00:57:46;13.53;74.11
75380;HTU21D;65641;44.714;37.756;2023-03-24T00:58:53;13.53;74.12
75380;HTU21D;65641;44.714;37.756;2023-03-24T01:00:00;13.52;74.14
75380;HTU21D;65641;44.714;37.756;2023-03-24T01:01:15;13.53;74.15
75380;HTU21D;65641;44.714;37.756;2023-03-24T01:02:19;13.52;74.15
75380;HTU21D;65641;44.714;37.756;2023-03-24T01:03:24;13.52;74.17
75380;HTU21D;65641;44.714;37.756;2023-03-24T01:04:29;13.51;74.18
75380;HTU21D;65641;44.714;37.756;2023-03-24T01:05:32;13.51;74.20
75380;HTU21D;65641;44.714;37.756;2023-03-24T01:06:36;13.51;74.20
75380;HTU21D;65641;44.714;37.756;2023-03-24T01:07:39;13.51;74.20
75380;HTU21D;65641;44.714;37.756;2023-03-24T01:08:44;13.50;74.22
75380;HTU21D;65641;44.714;37.756;2023-03-24T01:09:48;13.50;74.22
75380;HTU21D;65641;44.714;37.756;2023-03-24T01:10:59;13.51;74.22
75380;HTU21D;65641;44.714;37.756;2023-03-24T01:12:03;13.49;74.23
75380;HTU21D;65641;44.714;37.756;2023-03-24T01:13:07;13.49;74.27
75380;HTU21D;65641;44.714;37.756;2023-03-24T01:14:12;13.50;74.28
75380;HTU21D;65641;44.714;37.756;2023-03-24T01:15:17;13.49;74.28
75380;HTU21D;65641;44.714;37.756;2023-03-24T01:16:20;13.50;74.28
75380;HTU21D;65641;44.714;37.756;2023-03-24T01:17:27;13.49;74.30
75380;HTU21D;65641;44.714;37.756;2023-03-24T01:18:31;13.50;74.31
75380;HTU21D;65641;44.714;37.756;2023-03-24T01:19:35;13.49;74.31
75380;HTU21D;65641;44.714;37.756;2023-03-24T01:20:39;13.48;74.30
75380;HTU21D;65641;44.714;37.756;2023-03-24T01:21:43;13.49;74.28
75380;HTU21D;65641;44.714;37.756;2023-03-24T01:22:45;13.49;74.31
75380;HTU21D;65641;44.714;37.756;2023-03-24T01:23:48;13.49;74.31
75380;HTU21D;65641;44.714;37.756;2023-03-24T01:24:51;13.47;74.31
75380;HTU21D;65641;44.714;37.756;2023-03-24T01:25:54;13.48;74.31
75380;HTU21D;65641;44.714;37.756;2023-03-24T01:26:57;13.47;74.31
75380;HTU21D;65641;44.714;37.756;2023-03-24T01:28:00;13.48;74.31
75380;HTU21D;65641;44.714;37.756;2023-03-24T01:29:03;13.48;74.31
75380;HTU21D;65641;44.714;37.756;2023-03-24T01:30:06;13.48;74.31
75380;HTU21D;65641;44.714;37.756;2023-03-24T01:31:10;13.48;74.33
75380;HTU21D;65641;44.714;37.756;2023-03-24T01:32:14;13.48;74.34
75380;HTU21D;65641;44.714;37.756;2023-03-24T01:33:17;13.47;74.35
75380;HTU21D;65641;44.714;37.756;2023-03-24T01:34:20;13.48;74.35
75380;HTU21D;65641;44.714;37.756;2023-03-24T01:35:24;13.47;74.35
75380;HTU21D;65641;44.714;37.756;2023-03-24T01:36:31;13.47;74.35
75380;HTU21D;65641;44.714;37.756;2023-03-24T01:37:34;13.48;74.35
75380;HTU21D;65641;44.714;37.756;2023-03-24T01:38:37;13.47;74.36
75380;HTU21D;65641;44.714;37.756;2023-03-24T01:39:40;13.47;74.36
75380;HTU21D;65641;44.714;37.756;2023-03-24T01:40:45;13.48;74.36
75380;HTU21D;65641;44.714;37.756;2023-03-24T01:41:48;13.47;74.38
75380;HTU21D;65641;44.714;37.756;2023-03-24T01:42:52;13.46;74.37
75380;HTU21D;65641;44.714;37.756;2023-03-24T01:43:55;13.47;74.39
75380;HTU21D;65641;44.714;37.756;2023-03-24T01:45:00;13.46;74.40
75380;HTU21D;65641;44.714;37.756;2023-03-24T01:47:07;13.46;74.41
75380;HTU21D;65641;44.714;37.756;2023-03-24T01:48:12;13.46;74.41
75380;HTU21D;65641;44.714;37.756;2023-03-24T01:49:15;13.45;74.41
75380;HTU21D;65641;44.714;37.756;2023-03-24T01:50:19;13.46;74.41
75380;HTU21D;65641;44.714;37.756;2023-03-24T01:51:52;13.45;74.41
75380;HTU21D;65641;44.714;37.756;2023-03-24T01:52:56;13.45;74.42
75380;HTU21D;65641;44.714;37.756;2023-03-24T01:54:26;13.44;74.43
75380;HTU21D;65641;44.714;37.756;2023-03-24T01:55:32;13.45;74.42
75380;HTU21D;65641;44.714;37.756;2023-03-24T01:56:39;13.44;74.42
75380;HTU21D;65641;44.714;37.756;2023-03-24T01:57:52;13.43;74.42
75380;HTU21D;65641;44.714;37.756;2023-03-24T01:59:07;13.45;74.42
75380;HTU21D;65641;44.714;37.756;2023-03-24T02:00:31;13.44;74.44
75380;HTU21D;65641;44.714;37.756;2023-03-24T02:02:04;13.43;74.44
75380;HTU21D;65641;44.714;37.756;2023-03-24T02:03:19;13.41;74.46
75380;HTU21D;65641;44.714;37.756;2023-03-24T02:04:40;13.44;74.46
75380;HTU21D;65641;44.714;37.756;2023-03-24T02:05:46;13.40;74.45
75380;HTU21D;65641;44.714;37.756;2023-03-24T02:06:49;13.41;74.45
75380;HTU21D;65641;44.714;37.756;2023-03-24T02:09:17;13.39;74.51
75380;HTU21D;65641;44.714;37.756;2023-03-24T02:10:21;13.40;74.51
75380;HTU21D;65641;44.714;37.756;2023-03-24T02:11:28;13.40;74.54
75380;HTU21D;65641;44.714;37.756;2023-03-24T02:12:35;13.41;74.54
75380;HTU21D;65641;44.714;37.756;2023-03-24T02:13:41;13.40;74.54
75380;HTU21D;65641;44.714;37.756;2023-03-24T02:14:45;13.38;74.54
75380;HTU21D;65641;44.714;37.756;2023-03-24T02:17:33;13.39;74.54
75380;HTU21D;65641;44.714;37.756;2023-03-24T02:21:55;13.39;74.54
75380;HTU21D;65641;44.714;37.756;2023-03-24T02:23:14;13.39;74.53
75380;HTU21D;65641;44.714;37.756;2023-03-24T02:26:03;13.38;74.54
75380;HTU21D;65641;44.714;37.756;2023-03-24T02:37:27;13.33;74.58
75380;HTU21D;65641;44.714;37.756;2023-03-24T02:43:17;13.33;74.58
75380;HTU21D;65641;44.714;37.756;2023-03-24T02:44:41;13.33;74.57
75380;HTU21D;65641;44.714;37.756;2023-03-24T02:46:10;13.32;74.58
75380;HTU21D;65641;44.714;37.756;2023-03-24T02:47:23;13.32;74.58
75380;HTU21D;65641;44.714;37.756;2023-03-24T02:48:32;13.32;74.59
75380;HTU21D;65641;44.714;37.756;2023-03-24T02:49:50;13.31;74.59
75380;HTU21D;65641;44.714;37.756;2023-03-24T02:51:13;13.33;74.59
75380;HTU21D;65641;44.714;37.756;2023-03-24T02:53:52;13.32;74.59
75380;HTU21D;65641;44.714;37.756;2023-03-24T02:55:22;13.31;74.57
75380;HTU21D;65641;44.714;37.756;2023-03-24T02:57:57;13.31;74.56
75380;HTU21D;65641;44.714;37.756;2023-03-24T02:59:53;13.31;74.57
75380;HTU21D;65641;44.714;37.756;2023-03-24T03:01:25;13.30;74.56
75380;HTU21D;65641;44.714;37.756;2023-03-24T03:03:02;13.30;74.57
75380;HTU21D;65641;44.714;37.756;2023-03-24T03:04:17;13.30;74.57
75380;HTU21D;65641;44.714;37.756;2023-03-24T03:05:32;13.27;74.57
75380;HTU21D;65641;44.714;37.756;2023-03-24T03:06:38;13.29;74.57
75380;HTU21D;65641;44.714;37.756;2023-03-24T03:07:43;13.27;74.58
75380;HTU21D;65641;44.714;37.756;2023-03-24T03:08:49;13.29;74.58
75380;HTU21D;65641;44.714;37.756;2023-03-24T03:10:06;13.27;74.58
75380;HTU21D;65641;44.714;37.756;2023-03-24T03:11:14;13.27;74.60
75380;HTU21D;65641;44.714;37.756;2023-03-24T03:12:19;13.27;74.62
75380;HTU21D;65641;44.714;37.756;2023-03-24T03:13:37;13.26;74.62
75380;HTU21D;65641;44.714;37.756;2023-03-24T03:14:50;13.26;74.64
75380;HTU21D;65641;44.714;37.756;2023-03-24T03:15:57;13.26;74.63
75380;HTU21D;65641;44.714;37.756;2023-03-24T03:17:05;13.25;74.64
75380;HTU21D;65641;44.714;37.756;2023-03-24T03:20:01;13.25;74.65
75380;HTU21D;65641;44.714;37.756;2023-03-24T03:21:12;13.26;74.65
75380;HTU21D;65641;44.714;37.756;2023-03-24T03:22:21;13.25;74.64
75380;HTU21D;65641;44.714;37.756;2023-03-24T03:23:34;13.26;74.65
75380;HTU21D;65641;44.714;37.756;2023-03-24T03:24:39;13.26;74.65
75380;HTU21D;65641;44.714;37.756;2023-03-24T03:25:46;13.25;74.64
75380;HTU21D;65641;44.714;37.756;2023-03-24T03:26:59;13.25;74.64
75380;HTU21D;65641;44.714;37.756;2023-03-24T03:28:04;13.25;74.64
75380;HTU21D;65641;44.714;37.756;2023-03-24T03:29:12;13.25;74.63
75380;HTU21D;65641;44.714;37.756;2023-03-24T03:30:23;13.24;74.63
75380;HTU21D;65641;44.714;37.756;2023-03-24T03:31:35;13.25;74.64
75380;HTU21D;65641;44.714;37.756;2023-03-24T03:32:48;13.24;74.63
75380;HTU21D;65641;44.714;37.756;2023-03-24T03:35:41;13.24;74.64
75380;HTU21D;65641;44.714;37.756;2023-03-24T03:36:52;13.25;74.64
75380;HTU21D;65641;44.714;37.756;2023-03-24T03:39:31;13.24;74.63
75380;HTU21D;65641;44.714;37.756;2023-03-24T03:40:42;13.26;74.64
75380;HTU21D;65641;44.714;37.756;2023-03-24T03:41:52;13.24;74.64
75380;HTU21D;65641;44.714;37.756;2023-03-24T03:42:55;13.26;74.64
75380;HTU21D;65641;44.714;37.756;2023-03-24T03:43:59;13.26;74.64
75380;HTU21D;65641;44.714;37.756;2023-03-24T03:45:03;13.26;74.65
75380;HTU21D;65641;44.714;37.756;2023-03-24T03:46:06;13.25;74.66
75380;HTU21D;65641;44.714;37.756;2023-03-24T03:47:12;13.26;74.69
75380;HTU21D;65641;44.714;37.756;2023-03-24T03:48:18;13.26;74.67
75380;HTU21D;65641;44.714;37.756;2023-03-24T03:49:21;13.27;74.66
75380;HTU21D;65641;44.714;37.756;2023-03-24T03:50:24;13.29;74.66
75380;HTU21D;65641;44.714;37.756;2023-03-24T03:51:27;13.27;74.66
75380;HTU21D;65641;44.714;37.756;2023-03-24T03:52:31;13.29;74.65
75380;HTU21D;65641;44.714;37.756;2023-03-24T03:53:53;13.30;74.62
75380;HTU21D;65641;44.714;37.756;2023-03-24T03:54:57;13.29;74.62
75380;HTU21D;65641;44.714;37.756;2023-03-24T03:56:00;13.30;74.61
75380;HTU21D;65641;44.714;37.756;2023-03-24T03:57:07;13.31;74.58
75380;HTU21D;65641;44.714;37.756;2023-03-24T03:58:29;13.32;74.56
75380;HTU21D;65641;44.714;37.756;2023-03-24T03:59:34;13.32;74.53
75380;HTU21D;65641;44.714;37.756;2023-03-24T04:00:45;13.32;74.51
75380;HTU21D;65641;44.714;37.756;2023-03-24T04:08:13;13.34;74.48
75380;HTU21D;65641;44.714;37.756;2023-03-24T04:13:24;13.38;74.49
75380;HTU21D;65641;44.714;37.756;2023-03-24T04:16:46;13.41;74.38
75380;HTU21D;65641;44.714;37.756;2023-03-24T04:25:31;13.51;74.18
75380;HTU21D;65641;44.714;37.756;2023-03-24T04:26:57;13.52;74.09
75380;HTU21D;65641;44.714;37.756;2023-03-24T04:31:21;13.55;74.02
75380;HTU21D;65641;44.714;37.756;2023-03-24T04:32:44;13.55;73.96
75380;HTU21D;65641;44.714;37.756;2023-03-24T04:33:58;13.58;73.93
75380;HTU21D;65641;44.714;37.756;2023-03-24T04:35:08;13.59;73.92
75380;HTU21D;65641;44.714;37.756;2023-03-24T04:36:40;13.60;73.95
75380;HTU21D;65641;44.714;37.756;2023-03-24T04:37:53;13.61;74.00
75380;HTU21D;65641;44.714;37.756;2023-03-24T04:39:01;13.62;74.02
75380;HTU21D;65641;44.714;37.756;2023-03-24T04:40:13;13.63;73.98
75380;HTU21D;65641;44.714;37.756;2023-03-24T04:41:20;13.65;73.92
75380;HTU21D;65641;44.714;37.756;2023-03-24T04:42:48;13.65;73.79
75380;HTU21D;65641;44.714;37.756;2023-03-24T04:43:58;13.67;73.69
75380;HTU21D;65641;44.714;37.756;2023-03-24T04:45:03;13.66;73.68
75380;HTU21D;65641;44.714;37.756;2023-03-24T04:46:31;13.67;73.66
75380;HTU21D;65641;44.714;37.756;2023-03-24T04:47:46;13.68;73.61
75380;HTU21D;65641;44.714;37.756;2023-03-24T04:49:24;13.69;73.65
75380;HTU21D;65641;44.714;37.756;2023-03-24T04:50:30;13.71;73.70
75380;HTU21D;65641;44.714;37.756;2023-03-24T04:51:35;13.73;73.77
75380;HTU21D;65641;44.714;37.756;2023-03-24T04:52:41;13.73;73.73
75380;HTU21D;65641;44.714;37.756;2023-03-24T04:53:46;13.75;73.65
75380;HTU21D;65641;44.714;37.756;2023-03-24T04:54:49;13.76;73.64
75380;HTU21D;65641;44.714;37.756;2023-03-24T04:57:32;13.78;73.54
75380;HTU21D;65641;44.714;37.756;2023-03-24T04:58:38;13.78;73.50
75380;HTU21D;65641;44.714;37.756;2023-03-24T04:59:41;13.80;73.45
75380;HTU21D;65641;44.714;37.756;2023-03-24T05:00:45;13.81;73.44
75380;HTU21D;65641;44.714;37.756;2023-03-24T05:01:50;13.82;73.41
75380;HTU21D;65641;44.714;37.756;2023-03-24T05:03:03;13.84;73.35
75380;HTU21D;65641;44.714;37.756;2023-03-24T05:04:06;13.84;73.42
75380;HTU21D;65641;44.714;37.756;2023-03-24T05:05:10;13.85;73.41
75380;HTU21D;65641;44.714;37.756;2023-03-24T05:06:18;13.86;73.38
75380;HTU21D;65641;44.714;37.756;2023-03-24T05:07:20;13.89;73.37
75380;HTU21D;65641;44.714;37.756;2023-03-24T05:08:27;13.88;73.29
75380;HTU21D;65641;44.714;37.756;2023-03-24T05:09:30;13.91;73.23
75380;HTU21D;65641;44.714;37.756;2023-03-24T05:10:34;13.92;73.22
75380;HTU21D;65641;44.714;37.756;2023-03-24T05:11:40;13.93;73.15
75380;HTU21D;65641;44.714;37.756;2023-03-24T05:12:43;13.94;73.12
75380;HTU21D;65641;44.714;37.756;2023-03-24T05:14:06;13.95;73.04
75380;HTU21D;65641;44.714;37.756;2023-03-24T05:15:09;13.95;73.00
75380;HTU21D;65641;44.714;37.756;2023-03-24T05:16:13;13.95;72.96
75380;HTU21D;65641;44.714;37.756;2023-03-24T05:17:22;13.97;72.96
75380;HTU21D;65641;44.714;37.756;2023-03-24T05:18:25;13.97;72.94
75380;HTU21D;65641;44.714;37.756;2023-03-24T05:19:30;13.98;72.95
75380;HTU21D;65641;44.714;37.756;2023-03-24T05:20:34;13.98;72.95
75380;HTU21D;65641;44.714;37.756;2023-03-24T05:21:47;13.99;72.90
75380;HTU21D;65641;44.714;37.756;2023-03-24T05:22:50;14.01;72.87
75380;HTU21D;65641;44.714;37.756;2023-03-24T05:23:53;14.00;72.82
75380;HTU21D;65641;44.714;37.756;2023-03-24T05:24:56;14.00;72.84
75380;HTU21D;65641;44.714;37.756;2023-03-24T05:25:59;14.01;72.83
75380;HTU21D;65641;44.714;37.756;2023-03-24T05:27:05;14.01;72.80
75380;HTU21D;65641;44.714;37.756;2023-03-24T05:28:08;14.03;72.76
75380;HTU21D;65641;44.714;37.756;2023-03-24T05:29:10;14.03;72.72
75380;HTU21D;65641;44.714;37.756;2023-03-24T05:30:16;14.03;72.70
75380;HTU21D;65641;44.714;37.756;2023-03-24T05:31:19;14.04;72.71
75380;HTU21D;65641;44.714;37.756;2023-03-24T05:32:27;14.04;72.75
75380;HTU21D;65641;44.714;37.756;2023-03-24T05:33:31;14.06;72.77
75380;HTU21D;65641;44.714;37.756;2023-03-24T05:34:35;14.04;72.82
75380;HTU21D;65641;44.714;37.756;2023-03-24T05:35:44;14.06;72.86
75380;HTU21D;65641;44.714;37.756;2023-03-24T05:36:47;14.06;72.83
75380;HTU21D;65641;44.714;37.756;2023-03-24T05:37:53;14.07;72.86
75380;HTU21D;65641;44.714;37.756;2023-03-24T05:38:56;14.08;72.90
75380;HTU21D;65641;44.714;37.756;2023-03-24T05:40:09;14.09;72.85
75380;HTU21D;65641;44.714;37.756;2023-03-24T05:41:41;14.08;72.74
75380;HTU21D;65641;44.714;37.756;2023-03-24T05:42:44;14.10;72.71
75380;HTU21D;65641;44.714;37.756;2023-03-24T05:43:49;14.10;72.65
75380;HTU21D;65641;44.714;37.756;2023-03-24T05:44:52;14.09;72.57
75380;HTU21D;65641;44.714;37.756;2023-03-24T05:46:01;14.10;72.52
75380;HTU21D;65641;44.714;37.756;2023-03-24T05:47:07;14.11;72.48
75380;HTU21D;65641;44.714;37.756;2023-03-24T05:48:10;14.09;72.51
75380;HTU21D;65641;44.714;37.756;2023-03-24T05:49:38;14.09;72.47
75380;HTU21D;65641;44.714;37.756;2023-03-24T05:50:42;14.10;72.53
75380;HTU21D;65641;44.714;37.756;2023-03-24T05:51:45;14.09;72.58
75380;HTU21D;65641;44.714;37.756;2023-03-24T05:52:48;14.09;72.66
75380;HTU21D;65641;44.714;37.756;2023-03-24T05:54:23;14.09;72.70
75380;HTU21D;65641;44.714;37.756;2023-03-24T05:55:34;14.10;72.70
75380;HTU21D;65641;44.714;37.756;2023-03-24T05:56:48;14.08;72.70
75380;HTU21D;65641;44.714;37.756;2023-03-24T05:57:51;14.08;72.71
75380;HTU21D;65641;44.714;37.756;2023-03-24T05:59:33;14.09;72.65
75380;HTU21D;65641;44.714;37.756;2023-03-24T06:01:13;14.09;72.64
75380;HTU21D;65641;44.714;37.756;2023-03-24T06:02:22;14.09;72.64
75380;HTU21D;65641;44.714;37.756;2023-03-24T06:03:31;14.08;72.62
75380;HTU21D;65641;44.714;37.756;2023-03-24T06:04:48;14.07;72.64
75380;HTU21D;65641;44.714;37.756;2023-03-24T06:05:55;14.06;72.65
75380;HTU21D;65641;44.714;37.756;2023-03-24T06:06:59;14.06;72.67
75380;HTU21D;65641;44.714;37.756;2023-03-24T06:08:05;14.06;72.68
75380;HTU21D;65641;44.714;37.756;2023-03-24T06:09:12;14.05;72.66
75380;HTU21D;65641;44.714;37.756;2023-03-24T06:10:16;14.06;72.64
75380;HTU21D;65641;44.714;37.756;2023-03-24T06:11:24;14.05;72.64
75380;HTU21D;65641;44.714;37.756;2023-03-24T06:12:36;14.03;72.63
75380;HTU21D;65641;44.714;37.756;2023-03-24T06:13:40;14.04;72.62
75380;HTU21D;65641;44.714;37.756;2023-03-24T06:14:43;14.03;72.66
75380;HTU21D;65641;44.714;37.756;2023-03-24T06:15:48;14.00;72.74
75380;HTU21D;65641;44.714;37.756;2023-03-24T06:17:09;14.01;72.85
75380;HTU21D;65641;44.714;37.756;2023-03-24T06:18:19;14.00;72.93
75380;HTU21D;65641;44.714;37.756;2023-03-24T06:19:27;14.00;72.98
75380;HTU21D;65641;44.714;37.756;2023-03-24T06:20:47;13.99;73.06
75380;HTU21D;65641;44.714;37.756;2023-03-24T06:22:00;14.00;73.06
75380;HTU21D;65641;44.714;37.756;2023-03-24T06:23:09;13.99;73.02
75380;HTU21D;65641;44.714;37.756;2023-03-24T06:24:29;13.99;73.01
75380;HTU21D;65641;44.714;37.756;2023-03-24T06:25:38;13.98;73.03
75380;HTU21D;65641;44.714;37.756;2023-03-24T06:26:51;13.98;73.07
75380;HTU21D;65641;44.714;37.756;2023-03-24T06:27:54;13.98;73.08
75380;HTU21D;65641;44.714;37.756;2023-03-24T06:28:59;13.99;73.12
75380;HTU21D;65641;44.714;37.756;2023-03-24T06:30:06;14.00;73.15
75380;HTU21D;65641;44.714;37.756;2023-03-24T06:31:10;13.98;73.14
75380;HTU21D;65641;44.714;37.756;2023-03-24T06:32:19;13.99;73.09
75380;HTU21D;65641;44.714;37.756;2023-03-24T06:33:23;14.00;73.11
75380;HTU21D;65641;44.714;37.756;2023-03-24T06:34:28;13.99;73.09
75380;HTU21D;65641;44.714;37.756;2023-03-24T06:35:46;13.99;73.09
75380;HTU21D;65641;44.714;37.756;2023-03-24T06:36:52;14.00;73.04
75380;HTU21D;65641;44.714;37.756;2023-03-24T06:37:55;14.00;73.08
75380;HTU21D;65641;44.714;37.756;2023-03-24T06:38:57;13.99;73.10
75380;HTU21D;65641;44.714;37.756;2023-03-24T06:40:01;14.00;73.08
75380;HTU21D;65641;44.714;37.756;2023-03-24T06:41:07;14.00;73.06
75380;HTU21D;65641;44.714;37.756;2023-03-24T06:42:11;14.00;73.06
75380;HTU21D;65641;44.714;37.756;2023-03-24T06:43:14;14.03;73.09
75380;HTU21D;65641;44.714;37.756;2023-03-24T06:44:18;14.03;73.06
75380;HTU21D;65641;44.714;37.756;2023-03-24T06:45:20;14.01;73.07
75380;HTU21D;65641;44.714;37.756;2023-03-24T06:46:24;14.03;73.09
75380;HTU21D;65641;44.714;37.756;2023-03-24T06:47:27;14.03;73.17
75380;HTU21D;65641;44.714;37.756;2023-03-24T06:48:31;14.05;73.20
75380;HTU21D;65641;44.714;37.756;2023-03-24T06:49:41;14.06;73.23
75380;HTU21D;65641;44.714;37.756;2023-03-24T06:50:44;14.07;73.20
75380;HTU21D;65641;44.714;37.756;2023-03-24T06:51:48;14.08;73.22
75380;HTU21D;65641;44.714;37.756;2023-03-24T06:52:52;14.10;73.19
75380;HTU21D;65641;44.714;37.756;2023-03-24T06:53:56;14.11;73.15
75380;HTU21D;65641;44.714;37.756;2023-03-24T06:55:01;14.13;73.14
75380;HTU21D;65641;44.714;37.756;2023-03-24T06:56:05;14.14;73.09
75380;HTU21D;65641;44.714;37.756;2023-03-24T06:57:13;14.18;73.01
75380;HTU21D;65641;44.714;37.756;2023-03-24T06:58:35;14.18;72.99
75380;HTU21D;65641;44.714;37.756;2023-03-24T06:59:42;14.20;73.01
75380;HTU21D;65641;44.714;37.756;2023-03-24T07:00:45;14.22;72.99
75380;HTU21D;65641;44.714;37.756;2023-03-24T07:02:00;14.24;72.98
75380;HTU21D;65641;44.714;37.756;2023-03-24T07:03:08;14.26;73.03
75380;HTU21D;65641;44.714;37.756;2023-03-24T07:04:13;14.28;72.99
75380;HTU21D;65641;44.714;37.756;2023-03-24T07:05:28;14.33;73.03
75380;HTU21D;65641;44.714;37.756;2023-03-24T07:06:31;14.34;72.97
75380;HTU21D;65641;44.714;37.756;2023-03-24T07:07:48;14.38;72.74
75380;HTU21D;65641;44.714;37.756;2023-03-24T07:09:13;14.41;72.55
75380;HTU21D;65641;44.714;37.756;2023-03-24T07:10:16;14.41;72.46
75380;HTU21D;65641;44.714;37.756;2023-03-24T07:11:22;14.44;72.37
75380;HTU21D;65641;44.714;37.756;2023-03-24T07:12:28;14.45;72.27
75380;HTU21D;65641;44.714;37.756;2023-03-24T07:13:32;14.49;72.21
75380;HTU21D;65641;44.714;37.756;2023-03-24T07:14:38;14.51;72.10
75380;HTU21D;65641;44.714;37.756;2023-03-24T07:15:41;14.50;72.02
75380;HTU21D;65641;44.714;37.756;2023-03-24T07:16:45;14.51;71.96
75380;HTU21D;65641;44.714;37.756;2023-03-24T07:18:14;14.54;71.89
75380;HTU21D;65641;44.714;37.756;2023-03-24T07:19:19;14.54;71.87
75380;HTU21D;65641;44.714;37.756;2023-03-24T07:20:32;14.54;71.85
75380;HTU21D;65641;44.714;37.756;2023-03-24T07:21:44;14.56;71.80
75380;HTU21D;65641;44.714;37.756;2023-03-24T07:23:03;14.58;71.73
75380;HTU21D;65641;44.714;37.756;2023-03-24T07:24:29;14.59;71.68
75380;HTU21D;65641;44.714;37.756;2023-03-24T07:25:46;14.60;71.66
75380;HTU21D;65641;44.714;37.756;2023-03-24T07:26:54;14.60;71.67
75380;HTU21D;65641;44.714;37.756;2023-03-24T07:27:58;14.60;71.62
75380;HTU21D;65641;44.714;37.756;2023-03-24T07:29:01;14.60;71.58
75380;HTU21D;65641;44.714;37.756;2023-03-24T07:30:15;14.62;71.51
75380;HTU21D;65641;44.714;37.756;2023-03-24T07:31:23;14.63;71.52
75380;HTU21D;65641;44.714;37.756;2023-03-24T07:32:33;14.63;71.48
75380;HTU21D;65641;44.714;37.756;2023-03-24T07:33:41;14.63;71.53
75380;HTU21D;65641;44.714;37.756;2023-03-24T07:34:43;14.65;71.59
75380;HTU21D;65641;44.714;37.756;2023-03-24T07:35:47;14.64;71.62
75380;HTU21D;65641;44.714;37.756;2023-03-24T07:36:51;14.65;71.60
75380;HTU21D;65641;44.714;37.756;2023-03-24T07:37:58;14.65;71.65
75380;HTU21D;65641;44.714;37.756;2023-03-24T07:39:01;14.67;71.61
75380;HTU21D;65641;44.714;37.756;2023-03-24T07:40:10;14.66;71.48
75380;HTU21D;65641;44.714;37.756;2023-03-24T07:41:18;14.68;71.46
75380;HTU21D;65641;44.714;37.756;2023-03-24T07:42:26;14.68;71.53
75380;HTU21D;65641;44.714;37.756;2023-03-24T07:43:47;14.68;71.56
75380;HTU21D;65641;44.714;37.756;2023-03-24T07:44:58;14.70;71.61
75380;HTU21D;65641;44.714;37.756;2023-03-24T07:46:01;14.72;71.63
75380;HTU21D;65641;44.714;37.756;2023-03-24T07:47:04;14.73;71.61
75380;HTU21D;65641;44.714;37.756;2023-03-24T07:48:06;14.74;71.59
75380;HTU21D;65641;44.714;37.756;2023-03-24T07:49:11;14.75;71.66
75380;HTU21D;65641;44.714;37.756;2023-03-24T07:50:41;14.80;71.58
75380;HTU21D;65641;44.714;37.756;2023-03-24T07:52:04;14.83;71.51
75380;HTU21D;65641;44.714;37.756;2023-03-24T07:53:27;14.83;71.37
75380;HTU21D;65641;44.714;37.756;2023-03-24T07:54:31;14.85;71.27
75380;HTU21D;65641;44.714;37.756;2023-03-24T07:55:38;14.86;71.11
75380;HTU21D;65641;44.714;37.756;2023-03-24T07:56:48;14.87;70.97